createdAt,value
2022-11-28T00:01:33.614Z,42.20
2022-11-28T00:04:01.648Z,37.47
2022-11-28T00:06:29.631Z,41.38
2022-11-28T00:08:59.509Z,41.55
2022-11-28T00:11:27.340Z,41.45
2022-11-28T00:13:55.340Z,41.88
2022-11-28T00:16:24.465Z,39.95
2022-11-28T00:18:54.669Z,43.08
2022-11-28T00:21:23.160Z,36.10
2022-11-28T00:23:51.385Z,34.50
2022-11-28T00:26:20.413Z,33.13
2022-11-28T00:28:48.082Z,38.63
2022-11-28T00:31:18.012Z,32.60
2022-11-28T00:33:46.076Z,32.72
2022-11-28T00:36:14.146Z,31.77
2022-11-28T00:38:41.930Z,32.85
2022-11-28T00:41:31.099Z,32.88
2022-11-28T00:43:58.662Z,30.50
2022-11-28T00:46:26.207Z,32.65
2022-11-28T00:48:53.818Z,29.67
2022-11-28T00:51:27.103Z,33.80
2022-11-28T00:53:56.390Z,33.13
2022-11-28T00:56:27.460Z,32.33
2022-11-28T00:58:55.176Z,32.50
2022-11-28T01:01:26.721Z,31.75
2022-11-28T01:03:56.634Z,31.13
2022-11-28T01:06:44.856Z,30.50
2022-11-28T01:09:24.255Z,30.33
2022-11-28T01:11:53.777Z,28.83
2022-11-28T01:14:23.753Z,29.80
2022-11-28T01:16:51.213Z,29.30
2022-11-28T01:19:19.171Z,30.13
2022-11-28T01:21:46.483Z,32.08
2022-11-28T01:24:14.247Z,31.35
2022-11-28T01:26:42.940Z,29.05
2022-11-28T01:29:10.955Z,28.40
2022-11-28T01:31:39.225Z,28.85
2022-11-28T01:34:06.629Z,32.95
2022-11-28T01:36:34.440Z,31.23
2022-11-28T01:39:01.978Z,29.65
2022-11-28T01:41:29.424Z,28.23
2022-11-28T01:44:27.802Z,34.25
2022-11-28T01:46:55.265Z,33.20
2022-11-28T01:49:28.982Z,30.75
2022-11-28T01:52:01.454Z,31.75
2022-11-28T01:54:31.496Z,29.38
2022-11-28T01:57:06.323Z,30.23
2022-11-28T01:59:38.930Z,30.15
2022-11-28T02:02:10.029Z,31.00
2022-11-28T02:04:37.684Z,32.85
2022-11-28T02:07:05.062Z,29.27
2022-11-28T02:09:32.348Z,32.40
2022-11-28T02:12:27.446Z,32.90
2022-11-28T02:15:14.447Z,32.72
2022-11-28T02:18:05.862Z,30.48
2022-11-28T02:20:42.909Z,32.65
2022-11-28T02:23:41.260Z,30.55
2022-11-28T02:26:24.606Z,32.30
2022-11-28T02:29:36.122Z,30.50
2022-11-28T02:32:11.928Z,31.10
2022-11-28T02:34:59.244Z,29.02
2022-11-28T02:37:43.298Z,27.45
2022-11-28T02:40:22.115Z,29.30
2022-11-28T02:43:21.784Z,30.77
2022-11-28T02:46:26.070Z,28.20
2022-11-28T02:48:58.183Z,29.27
2022-11-28T02:51:35.917Z,29.60
2022-11-28T02:54:05.626Z,29.48
2022-11-28T02:56:32.864Z,29.52
2022-11-28T02:59:00.193Z,28.85
2022-11-28T03:01:34.871Z,31.95
2022-11-28T03:04:17.378Z,29.65
2022-11-28T03:07:05.864Z,31.33
2022-11-28T03:10:14.650Z,26.95
2022-11-28T03:13:03.142Z,28.25
2022-11-28T03:15:58.649Z,27.15
2022-11-28T03:18:40.356Z,33.95
2022-11-28T03:21:35.989Z,28.15
2022-11-28T03:24:36.711Z,30.80
2022-11-28T03:27:16.184Z,31.13
2022-11-28T03:29:56.094Z,28.08
2022-11-28T03:32:36.499Z,29.30
2022-11-28T03:35:12.767Z,31.25
2022-11-28T03:37:51.148Z,27.42
2022-11-28T03:40:23.842Z,32.58
2022-11-28T03:43:02.708Z,30.30
2022-11-28T03:45:37.605Z,32.85
2022-11-28T03:48:19.967Z,30.92
2022-11-28T03:51:18.376Z,32.83
2022-11-28T03:54:01.801Z,31.88
2022-11-28T03:56:44.307Z,31.23
2022-11-28T03:59:20.402Z,31.88
2022-11-28T04:02:02.702Z,31.30
2022-11-28T04:04:48.136Z,30.23
2022-11-28T04:07:43.122Z,28.85
2022-11-28T04:10:41.844Z,28.90
2022-11-28T04:13:21.555Z,28.55
2022-11-28T04:16:10.734Z,28.30
2022-11-28T04:18:46.508Z,33.70
2022-11-28T04:21:54.458Z,32.08
2022-11-28T04:24:29.862Z,31.60
2022-11-28T04:27:05.360Z,29.17
2022-11-28T04:29:38.380Z,32.67
2022-11-28T04:32:08.398Z,30.83
2022-11-28T04:34:39.082Z,29.13
2022-11-28T04:37:09.922Z,27.75
2022-11-28T04:39:41.251Z,25.90
2022-11-28T04:42:13.240Z,29.92
2022-11-28T04:45:06.342Z,30.25
2022-11-28T04:47:33.715Z,30.92
2022-11-28T04:50:01.230Z,31.10
2022-11-28T04:52:49.505Z,33.25
2022-11-28T04:55:25.813Z,29.13
2022-11-28T04:58:00.322Z,30.00
2022-11-28T05:00:27.708Z,31.80
2022-11-28T05:02:55.921Z,32.88
2022-11-28T05:05:26.164Z,32.72
2022-11-28T05:07:53.764Z,31.13
2022-11-28T05:10:21.216Z,31.58
2022-11-28T05:12:48.564Z,34.63
2022-11-28T05:15:19.380Z,32.40
2022-11-28T05:17:47.151Z,32.70
2022-11-28T05:20:14.982Z,38.03
2022-11-28T05:22:42.246Z,32.35
2022-11-28T05:25:09.805Z,31.20
2022-11-28T05:27:38.648Z,34.22
2022-11-28T05:30:07.383Z,32.08
2022-11-28T05:32:36.407Z,33.75
2022-11-28T05:35:04.567Z,35.58
2022-11-28T05:37:32.710Z,31.38
2022-11-28T05:40:00.154Z,34.33
2022-11-28T05:42:28.615Z,33.72
2022-11-28T05:44:56.293Z,32.03
2022-11-28T05:47:25.428Z,31.10
2022-11-28T05:49:52.865Z,31.67
2022-11-28T05:52:20.130Z,32.08
2022-11-28T05:54:47.535Z,29.58
2022-11-28T05:57:14.882Z,35.03
2022-11-28T05:59:42.515Z,33.85
2022-11-28T06:02:10.080Z,30.30
2022-11-28T06:04:38.318Z,30.42
2022-11-28T06:07:05.527Z,31.55
2022-11-28T06:09:32.816Z,32.75
2022-11-28T06:12:00.203Z,32.03
2022-11-28T06:14:27.442Z,31.02
2022-11-28T06:16:54.806Z,30.55
2022-11-28T06:19:22.075Z,34.63
2022-11-28T06:21:52.741Z,33.85
2022-11-28T06:24:20.207Z,31.17
2022-11-28T06:26:47.509Z,32.05
2022-11-28T06:29:14.678Z,32.88
2022-11-28T06:31:42.026Z,33.65
2022-11-28T06:34:12.703Z,32.33
2022-11-28T06:36:40.470Z,33.38
2022-11-28T06:39:07.740Z,28.75
2022-11-28T06:41:34.962Z,34.60
2022-11-28T06:44:03.317Z,30.95
2022-11-28T06:46:30.684Z,31.15
2022-11-28T06:48:58.201Z,32.92
2022-11-28T06:51:25.812Z,32.60
2022-11-28T06:53:54.215Z,32.25
2022-11-28T06:56:21.990Z,33.15
2022-11-28T06:58:56.188Z,30.00
2022-11-28T07:01:25.924Z,28.17
2022-11-28T07:03:54.609Z,30.10
2022-11-28T07:06:25.966Z,30.67
2022-11-28T07:08:55.269Z,32.63
2022-11-28T07:11:31.458Z,30.23
2022-11-28T07:14:01.665Z,30.27
2022-11-28T07:16:31.285Z,27.08
2022-11-28T07:18:59.340Z,35.92
2022-11-28T07:21:27.409Z,32.25
2022-11-28T07:23:54.860Z,34.15
2022-11-28T07:26:23.064Z,36.65
2022-11-28T07:28:51.364Z,33.53
2022-11-28T07:31:21.534Z,31.20
2022-11-28T07:33:50.816Z,31.25
2022-11-28T07:36:24.261Z,27.02
2022-11-28T07:38:54.537Z,32.17
2022-11-28T07:41:26.477Z,30.00
2022-11-28T07:43:59.591Z,31.08
2022-11-28T07:46:28.818Z,31.80
2022-11-28T07:48:56.762Z,27.17
2022-11-28T07:51:27.679Z,30.60
2022-11-28T07:53:55.848Z,29.70
2022-11-28T07:56:25.729Z,32.42
2022-11-28T07:58:53.123Z,31.73
2022-11-28T08:01:26.184Z,29.48
2022-11-28T08:03:53.770Z,32.00
2022-11-28T08:06:24.114Z,36.50
2022-11-28T08:08:52.622Z,28.17
2022-11-28T08:11:22.185Z,30.08
2022-11-28T08:13:51.043Z,27.85
2022-11-28T08:16:22.324Z,33.85
2022-11-28T08:18:51.152Z,27.23
2022-11-28T08:21:20.292Z,26.83
2022-11-28T08:23:47.646Z,30.83
2022-11-28T08:26:17.167Z,27.85
2022-11-28T08:28:45.253Z,26.65
2022-11-28T08:31:24.228Z,26.38
2022-11-28T08:33:52.957Z,27.85
2022-11-28T08:36:21.705Z,30.08
2022-11-28T08:39:03.254Z,34.80
2022-11-28T08:41:37.027Z,30.05
2022-11-28T08:44:04.536Z,25.13
2022-11-28T08:46:31.856Z,26.48
2022-11-28T08:49:04.233Z,28.33
2022-11-28T08:51:32.327Z,31.13
2022-11-28T08:54:00.184Z,30.83
2022-11-28T08:56:28.192Z,26.92
2022-11-28T08:58:56.070Z,30.48
2022-11-28T09:01:25.942Z,27.70
2022-11-28T09:03:54.680Z,28.52
2022-11-28T09:06:23.450Z,28.95
2022-11-28T09:08:51.648Z,26.00
2022-11-28T09:11:21.259Z,28.60
2022-11-28T09:13:49.253Z,27.45
2022-11-28T09:16:17.468Z,28.95
2022-11-28T09:18:44.979Z,29.27
2022-11-28T09:21:14.892Z,24.08
2022-11-28T09:23:44.136Z,25.65
2022-11-28T09:26:16.365Z,24.48
2022-11-28T09:28:43.836Z,26.65
2022-11-28T09:31:12.711Z,23.17
2022-11-28T09:33:40.409Z,26.52
2022-11-28T09:36:10.432Z,23.35
2022-11-28T09:38:38.276Z,25.00
2022-11-28T09:41:31.760Z,25.17
2022-11-28T09:44:26.265Z,24.58
2022-11-28T09:46:58.606Z,25.10
2022-11-28T09:49:40.231Z,23.48
2022-11-28T09:52:29.665Z,25.55
2022-11-28T09:55:15.765Z,24.85
2022-11-28T09:57:49.045Z,24.67
2022-11-28T10:00:23.160Z,26.67
2022-11-28T10:02:58.424Z,23.83
2022-11-28T10:05:37.692Z,23.80
2022-11-28T10:08:19.035Z,27.88
2022-11-28T10:11:10.007Z,22.33
2022-11-28T10:14:11.715Z,24.85
2022-11-28T10:16:47.631Z,24.13
2022-11-28T10:19:52.316Z,25.25
2022-11-28T10:22:14.088Z,26.25
2022-11-28T10:25:04.484Z,25.42
2022-11-28T10:27:35.413Z,24.73
2022-11-28T10:30:11.537Z,30.30
2022-11-28T10:32:42.539Z,22.63
2022-11-28T10:35:35.916Z,27.55
2022-11-28T10:38:06.691Z,27.58
2022-11-28T10:40:56.569Z,26.00
2022-11-28T10:43:30.711Z,27.17
2022-11-28T10:46:03.687Z,27.25
2022-11-28T10:48:45.480Z,24.63
2022-11-28T10:51:15.605Z,26.42
2022-11-28T10:54:16.817Z,24.80
2022-11-28T10:56:56.407Z,28.77
2022-11-28T11:00:03.849Z,26.38
2022-11-28T11:02:40.660Z,26.38
2022-11-28T11:05:16.422Z,27.45
2022-11-28T11:07:51.558Z,27.10
2022-11-28T11:10:24.257Z,23.67
2022-11-28T11:12:53.062Z,27.58
2022-11-28T11:15:24.941Z,23.05
2022-11-28T11:17:52.439Z,23.88
2022-11-28T11:20:35.264Z,27.10
2022-11-28T11:23:17.962Z,25.88
2022-11-28T11:25:52.306Z,23.98
2022-11-28T11:28:29.811Z,27.85
2022-11-28T11:31:05.883Z,28.38
2022-11-28T11:33:36.164Z,28.73
2022-11-28T11:36:06.314Z,26.95
2022-11-28T11:38:37.958Z,25.15
2022-11-28T11:41:30.140Z,23.38
2022-11-28T11:44:23.204Z,25.85
2022-11-28T11:46:55.407Z,25.25
2022-11-28T11:49:39.496Z,24.75
2022-11-28T11:52:21.418Z,29.73
2022-11-28T11:54:55.052Z,26.23
2022-11-28T11:57:34.361Z,27.70
2022-11-28T12:00:15.277Z,28.58
2022-11-28T12:02:51.967Z,28.20
2022-11-28T12:06:12.808Z,26.05
2022-11-28T12:08:53.563Z,26.33
2022-11-28T12:11:32.017Z,27.65
2022-11-28T12:14:04.995Z,28.65
2022-11-28T12:16:57.452Z,30.27
2022-11-28T12:20:06.433Z,27.00
2022-11-28T12:22:58.087Z,26.15
2022-11-28T12:25:34.250Z,26.77
2022-11-28T12:28:31.458Z,25.15
2022-11-28T12:31:19.921Z,27.92
2022-11-28T12:34:20.542Z,26.83
2022-11-28T12:37:02.374Z,29.42
2022-11-28T12:40:06.928Z,25.73
2022-11-28T12:42:40.487Z,28.10
2022-11-28T12:45:37.293Z,34.92
2022-11-28T12:48:35.461Z,25.50
2022-11-28T12:51:17.840Z,24.67
2022-11-28T12:53:57.000Z,26.60
2022-11-28T12:56:38.291Z,30.10
2022-11-28T12:59:22.902Z,25.08
2022-11-28T13:02:27.120Z,29.63
2022-11-28T13:05:03.983Z,28.77
2022-11-28T13:07:43.205Z,25.30
2022-11-28T13:10:13.725Z,25.33
2022-11-28T13:12:59.400Z,27.58
2022-11-28T13:15:58.287Z,26.13
2022-11-28T13:18:52.409Z,29.15
2022-11-28T13:21:33.490Z,28.65
2022-11-28T13:24:07.331Z,26.60
2022-11-28T13:26:49.975Z,33.20
2022-11-28T13:29:17.272Z,27.80
2022-11-28T13:32:02.091Z,28.17
2022-11-28T13:34:31.567Z,30.38
2022-11-28T13:40:19.226Z,34.05
2022-11-28T13:43:06.509Z,30.05
2022-11-28T13:45:39.135Z,26.58
2022-11-28T13:49:13.357Z,32.75
2022-11-28T13:51:31.676Z,28.17
2022-11-28T13:54:18.286Z,29.02
2022-11-28T13:57:21.495Z,29.77
2022-11-28T14:00:13.852Z,29.00
2022-11-28T14:02:49.990Z,27.67
2022-11-28T14:05:26.540Z,31.15
2022-11-28T14:07:55.900Z,36.90
2022-11-28T14:10:40.692Z,29.20
2022-11-28T14:13:44.143Z,30.77
2022-11-28T14:16:30.250Z,30.25
2022-11-28T14:19:18.325Z,28.48
2022-11-28T14:21:45.838Z,31.88
2022-11-28T14:24:28.295Z,30.23
2022-11-28T14:27:00.981Z,28.42
2022-11-28T14:29:38.398Z,30.10
2022-11-28T14:32:30.124Z,30.05
2022-11-28T14:34:55.289Z,31.70
2022-11-28T14:37:29.420Z,28.48
2022-11-28T14:39:57.968Z,27.48
2022-11-28T14:42:58.953Z,29.75
2022-11-28T14:45:43.042Z,34.28
2022-11-28T14:48:22.856Z,34.15
2022-11-28T14:50:59.364Z,31.77
2022-11-28T14:53:37.477Z,32.80
2022-11-28T14:56:11.554Z,39.47
2022-11-28T14:58:39.628Z,31.60
2022-11-28T15:01:13.615Z,31.83
2022-11-28T15:04:04.677Z,32.33
2022-11-28T15:06:37.160Z,33.65
2022-11-28T15:09:18.099Z,33.20
2022-11-28T15:12:00.793Z,34.70
2022-11-28T15:14:30.616Z,34.88
2022-11-28T15:17:04.463Z,32.80
2022-11-28T15:19:40.745Z,31.98
2022-11-28T15:22:41.375Z,32.83
2022-11-28T15:25:22.253Z,33.80
2022-11-28T15:27:50.005Z,32.17
2022-11-28T15:30:20.621Z,34.90
2022-11-28T15:32:48.614Z,32.17
2022-11-28T15:35:19.019Z,31.00
2022-11-28T15:38:05.280Z,35.15
2022-11-28T15:40:36.663Z,34.50
2022-11-28T15:43:11.264Z,32.15
2022-11-28T15:45:42.422Z,33.80
2022-11-28T15:48:39.900Z,35.67
2022-11-28T15:51:08.742Z,39.00
2022-11-28T15:53:42.549Z,31.90
2022-11-28T15:56:13.786Z,38.42
2022-11-28T15:58:44.585Z,33.00
2022-11-28T16:01:19.750Z,34.72
2022-11-28T16:03:58.841Z,32.85
2022-11-28T16:06:30.885Z,33.80
2022-11-28T16:09:05.811Z,40.03
2022-11-28T16:11:35.819Z,35.15
2022-11-28T16:14:09.422Z,35.55
2022-11-28T16:16:38.989Z,35.20
2022-11-28T16:19:08.591Z,36.08
2022-11-28T16:21:43.460Z,36.15
2022-11-28T16:24:38.699Z,40.42
2022-11-28T16:27:06.576Z,35.22
2022-11-28T16:29:36.601Z,37.75
2022-11-28T16:32:26.578Z,36.67
2022-11-28T16:34:55.680Z,36.25
2022-11-28T16:37:30.163Z,42.92
2022-11-28T16:40:21.439Z,42.92
2022-11-28T16:43:04.471Z,39.30
2022-11-28T16:45:33.340Z,39.20
2022-11-28T16:48:00.778Z,36.95
2022-11-28T16:50:28.552Z,36.53
2022-11-28T16:52:58.689Z,40.22
2022-11-28T16:55:28.995Z,45.33
2022-11-28T16:58:22.810Z,41.33
2022-11-28T17:01:08.978Z,39.58
2022-11-28T17:03:51.403Z,35.88
2022-11-28T17:08:47.913Z,37.00
2022-11-28T17:11:18.201Z,41.92
2022-11-28T17:13:45.901Z,41.40
2022-11-28T17:16:20.343Z,42.20
2022-11-28T17:18:48.354Z,40.88
2022-11-28T17:21:17.296Z,55.30
2022-11-28T17:23:45.279Z,37.90
2022-11-28T17:26:12.861Z,42.22
2022-11-28T17:28:40.176Z,38.33
2022-11-28T17:31:10.212Z,39.55
2022-11-28T17:33:43.123Z,37.15
2022-11-28T17:36:12.626Z,41.85
2022-11-28T17:38:40.324Z,43.90
2022-11-28T17:41:14.860Z,42.42
2022-11-28T17:43:42.676Z,45.17
2022-11-28T17:46:10.494Z,41.13
2022-11-28T17:48:38.186Z,42.85
2022-11-28T17:51:06.504Z,40.53
2022-11-28T17:53:34.176Z,42.25
2022-11-28T17:56:01.745Z,38.33
2022-11-28T17:58:29.614Z,43.88
2022-11-28T18:01:00.407Z,42.50
2022-11-28T18:03:28.899Z,41.40
2022-11-28T18:05:56.416Z,42.13
2022-11-28T18:08:23.890Z,42.95
2022-11-28T18:11:03.705Z,47.50
2022-11-28T18:13:31.752Z,39.65
2022-11-28T18:15:59.588Z,41.72
2022-11-28T18:18:28.153Z,39.72
2022-11-28T18:20:57.027Z,43.13
2022-11-28T18:23:24.605Z,43.03
2022-11-28T18:25:52.581Z,45.80
2022-11-28T18:28:22.189Z,38.20
2022-11-28T18:30:49.954Z,38.78
2022-11-28T18:33:18.039Z,44.60
2022-11-28T18:35:45.772Z,36.92
2022-11-28T18:38:13.636Z,42.00
2022-11-28T18:40:41.737Z,38.70
2022-11-28T18:43:09.265Z,43.70
2022-11-28T18:45:36.910Z,47.47
2022-11-28T18:48:05.590Z,46.92
2022-11-28T18:50:34.934Z,46.42
2022-11-28T18:53:02.994Z,46.17
2022-11-28T18:55:30.820Z,41.20
2022-11-28T18:57:59.910Z,38.55
2022-11-28T19:00:28.342Z,39.63
2022-11-28T19:02:55.662Z,38.92
2022-11-28T19:05:23.750Z,36.70
2022-11-28T19:07:51.352Z,43.58
2022-11-28T19:10:19.400Z,42.20
2022-11-28T19:12:47.162Z,42.00
2022-11-28T19:15:14.751Z,43.95
2022-11-28T19:17:43.221Z,43.85
2022-11-28T19:20:11.422Z,40.55
2022-11-28T19:22:38.853Z,42.45
2022-11-28T19:25:07.041Z,47.97
2022-11-28T19:27:37.525Z,43.67
2022-11-28T19:30:06.673Z,42.55
2022-11-28T19:32:36.331Z,41.67
2022-11-28T19:35:04.381Z,41.47
2022-11-28T19:37:32.866Z,38.22
2022-11-28T19:40:02.842Z,39.90
2022-11-28T19:42:31.067Z,35.22
2022-11-28T19:44:58.996Z,39.85
2022-11-28T19:47:26.380Z,34.30
2022-11-28T19:49:53.901Z,33.53
2022-11-28T19:52:21.722Z,37.20
2022-11-28T19:54:49.357Z,38.03
2022-11-28T19:57:18.659Z,35.83
2022-11-28T19:59:47.889Z,41.08
2022-11-28T20:02:15.716Z,38.60
2022-11-28T20:04:43.718Z,38.00
2022-11-28T20:07:11.199Z,44.45
2022-11-28T20:09:38.956Z,39.55
2022-11-28T20:12:06.711Z,34.25
2022-11-28T20:14:34.892Z,40.58
2022-11-28T20:17:03.751Z,40.42
2022-11-28T20:19:32.307Z,41.10
2022-11-28T20:22:00.707Z,42.15
2022-11-28T20:24:30.200Z,38.15
2022-11-28T20:26:58.898Z,36.45
2022-11-28T20:29:28.088Z,38.60
2022-11-28T20:31:57.534Z,35.97
2022-11-28T20:34:27.094Z,37.17
2022-11-28T20:36:55.061Z,37.08
2022-11-28T20:39:23.142Z,40.42
2022-11-28T20:41:50.755Z,38.92
2022-11-28T20:44:19.084Z,44.83
2022-11-28T20:46:46.790Z,37.42
2022-11-28T20:49:16.585Z,38.92
2022-11-28T20:51:44.161Z,37.78
2022-11-28T20:54:13.653Z,34.92
2022-11-28T20:57:05.476Z,35.45
2022-11-28T20:59:30.741Z,36.47
2022-11-28T21:01:58.125Z,35.85
2022-11-28T21:04:25.714Z,35.53
2022-11-28T21:06:53.252Z,37.03
2022-11-28T21:09:20.934Z,30.95
2022-11-28T21:12:04.868Z,33.03
2022-11-28T21:14:32.470Z,30.05
2022-11-28T21:17:00.120Z,37.10
2022-11-28T21:19:27.729Z,36.08
2022-11-28T21:21:55.485Z,36.67
2022-11-28T21:24:22.818Z,40.08
2022-11-28T21:26:54.001Z,36.63
2022-11-28T21:29:24.369Z,32.80
2022-11-28T21:31:52.125Z,32.85
2022-11-28T21:34:19.769Z,31.15
2022-11-28T21:36:47.410Z,33.75
2022-11-28T21:39:17.667Z,33.28
2022-11-28T21:41:45.010Z,32.90
2022-11-28T21:44:12.417Z,32.80
2022-11-28T21:46:39.776Z,34.20
2022-11-28T21:49:07.262Z,32.03
2022-11-28T21:54:06.879Z,36.05
2022-11-28T21:56:34.577Z,36.42
2022-11-28T21:59:02.028Z,34.85
2022-11-28T22:01:30.131Z,37.22
2022-11-28T22:04:02.508Z,31.00
2022-11-28T22:06:45.623Z,35.90
2022-11-28T22:09:14.143Z,37.63
2022-11-28T22:11:41.552Z,35.10
2022-11-28T22:14:09.770Z,35.40
2022-11-28T22:16:37.724Z,37.88
2022-11-28T22:19:05.756Z,33.42
2022-11-28T22:21:51.938Z,37.45
2022-11-28T22:24:20.456Z,35.38
2022-11-28T22:26:48.753Z,34.15
2022-11-28T22:29:16.346Z,36.05
2022-11-28T22:31:43.778Z,34.92
2022-11-28T22:34:11.421Z,32.78
2022-11-28T22:36:39.588Z,33.72
2022-11-28T22:39:11.623Z,36.90
2022-11-28T22:41:39.343Z,35.25
2022-11-28T22:44:06.814Z,36.35
2022-11-28T22:46:34.353Z,34.03
2022-11-28T22:49:02.731Z,34.67
2022-11-28T22:51:31.826Z,35.03
2022-11-28T22:54:01.853Z,36.08
2022-11-28T22:56:31.816Z,34.70
2022-11-28T22:59:00.002Z,35.42
2022-11-28T23:01:30.507Z,38.55
2022-11-28T23:03:59.063Z,38.28
2022-11-28T23:06:29.339Z,34.95
2022-11-28T23:08:59.203Z,40.72
2022-11-28T23:11:31.241Z,43.17
2022-11-28T23:14:00.574Z,38.08
2022-11-28T23:16:34.021Z,33.35
2022-11-28T23:19:06.881Z,35.03
2022-11-28T23:21:37.546Z,32.95
2022-11-28T23:24:06.313Z,34.60
2022-11-28T23:26:34.659Z,34.65
2022-11-28T23:29:05.031Z,39.67
2022-11-28T23:31:38.789Z,37.40
2022-11-28T23:34:07.124Z,36.03
2022-11-28T23:36:41.810Z,38.10
2022-11-28T23:39:15.689Z,37.40
2022-11-28T23:41:43.752Z,37.95
2022-11-28T23:44:16.380Z,33.42
2022-11-28T23:46:43.915Z,33.55
2022-11-28T23:49:11.817Z,34.67
2022-11-28T23:51:40.690Z,37.17
2022-11-28T23:54:09.658Z,37.40
2022-11-28T23:56:38.309Z,36.08
2022-11-28T23:59:08.036Z,36.78
